createdAt,value
2017-09-13T00:00:24.260Z,12.20
2017-09-13T00:01:18.301Z,12.19
2017-09-13T00:02:18.270Z,12.15
2017-09-13T00:03:12.416Z,12.17
2017-09-13T00:04:06.470Z,12.14
2017-09-13T00:04:55.476Z,12.12
2017-09-13T00:05:43.507Z,12.09
2017-09-13T00:06:38.544Z,12.11
2017-09-13T00:07:32.517Z,12.06
2017-09-13T00:08:32.620Z,12.09
2017-09-13T00:09:26.716Z,12.10
2017-09-13T00:10:21.000Z,12.10
2017-09-13T00:11:14.702Z,12.13
2017-09-13T00:12:14.983Z,12.12
2017-09-13T00:13:21.751Z,12.14
2017-09-13T00:14:09.753Z,12.11
2017-09-13T00:15:03.858Z,12.09
2017-09-13T00:15:58.865Z,12.04
2017-09-13T00:16:52.870Z,12.03
2017-09-13T00:17:46.974Z,11.99
2017-09-13T00:18:47.270Z,11.98
2017-09-13T00:19:41.182Z,11.97
2017-09-13T00:20:35.111Z,11.96
2017-09-13T00:21:29.128Z,11.94
2017-09-13T00:22:24.336Z,11.96
2017-09-13T00:23:18.195Z,11.96
2017-09-13T00:24:12.252Z,11.98
2017-09-13T00:25:07.266Z,11.98
2017-09-13T00:26:01.242Z,12.00
2017-09-13T00:27:01.351Z,11.97
2017-09-13T00:27:56.327Z,12.02
2017-09-13T00:28:45.372Z,12.02
2017-09-13T00:29:45.356Z,11.98
2017-09-13T00:30:40.412Z,11.97
2017-09-13T00:31:40.455Z,11.95
2017-09-13T00:32:35.704Z,11.92
2017-09-13T00:33:30.531Z,11.92
2017-09-13T00:34:30.590Z,11.89
2017-09-13T00:35:24.578Z,11.88
2017-09-13T00:36:12.642Z,11.88
2017-09-13T00:37:07.590Z,11.84
2017-09-13T00:38:02.733Z,11.86
2017-09-13T00:38:57.727Z,11.87
2017-09-13T00:39:57.806Z,11.89
2017-09-13T00:40:46.840Z,11.88
2017-09-13T00:41:47.892Z,11.86
2017-09-13T00:42:47.822Z,11.84
2017-09-13T00:43:47.866Z,11.82
2017-09-13T00:44:36.936Z,11.77
2017-09-13T00:45:32.017Z,11.72
2017-09-13T00:46:32.093Z,11.73
2017-09-13T00:47:26.128Z,11.73
2017-09-13T00:48:27.057Z,11.68
2017-09-13T00:49:21.112Z,11.68
2017-09-13T00:50:15.169Z,11.66
2017-09-13T00:51:10.198Z,11.68
2017-09-13T00:52:04.238Z,11.68
2017-09-13T00:52:58.255Z,11.68
2017-09-13T00:53:52.206Z,11.64
2017-09-13T00:54:47.299Z,11.64
2017-09-13T00:55:42.361Z,11.67
2017-09-13T00:56:37.420Z,11.66
2017-09-13T00:57:32.433Z,11.64
2017-09-13T00:58:27.424Z,11.62
2017-09-13T00:59:27.534Z,11.60
2017-09-13T01:00:21.514Z,11.60
2017-09-13T01:01:15.565Z,11.56
2017-09-13T01:02:09.800Z,11.49
2017-09-13T01:03:04.624Z,11.46
2017-09-13T01:03:53.646Z,11.45
2017-09-13T01:04:48.738Z,11.38
2017-09-13T01:05:37.714Z,11.37
2017-09-13T01:06:37.892Z,11.38
2017-09-13T01:07:37.785Z,11.32
2017-09-13T01:08:37.856Z,11.27
2017-09-13T01:09:26.904Z,11.16
2017-09-13T01:10:21.932Z,11.09
2017-09-13T01:11:16.924Z,11.14
2017-09-13T01:12:11.075Z,11.06
2017-09-13T01:12:59.991Z,10.98
2017-09-13T01:13:54.102Z,10.86
2017-09-13T01:14:54.129Z,10.86
2017-09-13T01:15:49.186Z,10.84
2017-09-13T01:16:50.403Z,10.80
2017-09-13T01:17:44.673Z,10.79
2017-09-13T01:18:38.175Z,10.80
2017-09-13T01:19:27.220Z,10.80
2017-09-13T01:20:21.309Z,10.80
2017-09-13T01:21:21.365Z,10.83
2017-09-13T01:22:15.441Z,10.82
2017-09-13T01:23:10.424Z,10.77
2017-09-13T01:24:05.714Z,10.73
2017-09-13T01:24:54.548Z,10.66
2017-09-13T01:25:54.494Z,10.66
2017-09-13T01:26:54.719Z,10.70
2017-09-13T01:27:49.993Z,10.74
2017-09-13T01:28:44.562Z,10.72
2017-09-13T01:29:44.629Z,10.72
2017-09-13T01:30:44.721Z,10.67
2017-09-13T01:31:38.735Z,10.64
2017-09-13T01:32:32.774Z,10.68
2017-09-13T01:33:27.831Z,10.66
2017-09-13T01:34:21.886Z,10.61
2017-09-13T01:35:16.860Z,10.58
2017-09-13T01:36:17.952Z,10.59
2017-09-13T01:37:05.943Z,10.58
2017-09-13T01:38:06.153Z,10.57
2017-09-13T01:39:01.209Z,10.52
2017-09-13T01:39:49.124Z,10.59
2017-09-13T01:40:44.069Z,10.59
2017-09-13T01:41:38.068Z,10.53
2017-09-13T01:42:39.122Z,10.52
2017-09-13T01:43:34.146Z,10.52
2017-09-13T01:44:29.413Z,10.44
2017-09-13T01:45:24.312Z,10.50
2017-09-13T01:46:18.245Z,10.46
2017-09-13T01:47:13.318Z,10.34
2017-09-13T01:48:07.410Z,10.32
2017-09-13T01:49:02.423Z,10.36
2017-09-13T01:50:08.524Z,10.40
2017-09-13T01:51:14.445Z,10.39
2017-09-13T01:52:09.465Z,10.36
2017-09-13T01:53:09.556Z,10.32
2017-09-13T01:53:57.562Z,10.37
2017-09-13T01:54:52.596Z,10.37
2017-09-13T01:55:47.616Z,10.38
2017-09-13T01:56:42.665Z,10.43
2017-09-13T01:57:31.853Z,10.46
2017-09-13T01:58:19.861Z,10.45
2017-09-13T01:59:19.766Z,10.38
2017-09-13T02:00:13.886Z,10.44
2017-09-13T02:01:13.866Z,10.54
2017-09-13T02:02:09.132Z,10.58
2017-09-13T02:03:03.893Z,10.62
2017-09-13T02:04:03.946Z,10.64
2017-09-13T02:04:59.006Z,10.80
2017-09-13T02:06:00.032Z,10.87
2017-09-13T02:06:55.041Z,10.90
2017-09-13T02:07:44.406Z,10.90
2017-09-13T02:08:39.163Z,10.97
2017-09-13T02:09:28.158Z,11.07
2017-09-13T02:10:23.163Z,11.15
2017-09-13T02:11:24.165Z,11.25
2017-09-13T02:12:12.304Z,11.31
2017-09-13T02:13:12.345Z,11.38
2017-09-13T02:14:07.372Z,11.46
2017-09-13T02:15:01.338Z,11.52
2017-09-13T02:16:01.547Z,11.56
2017-09-13T02:16:49.400Z,11.59
2017-09-13T02:17:38.758Z,11.58
2017-09-13T02:18:32.745Z,11.62
2017-09-13T02:19:27.507Z,11.66
2017-09-13T02:20:21.609Z,11.72
2017-09-13T02:21:15.760Z,11.73
2017-09-13T02:22:04.759Z,11.76
2017-09-13T02:22:59.841Z,11.78
2017-09-13T02:23:48.738Z,11.78
2017-09-13T02:24:42.739Z,11.79
2017-09-13T02:25:42.800Z,11.84
2017-09-13T02:26:37.821Z,11.86
2017-09-13T02:27:37.841Z,11.88
2017-09-13T02:28:27.000Z,11.92
2017-09-13T02:29:14.918Z,11.90
2017-09-13T02:30:09.028Z,11.90
2017-09-13T02:30:57.019Z,11.90
2017-09-13T02:31:51.037Z,11.91
2017-09-13T02:32:46.387Z,11.88
2017-09-13T02:33:46.141Z,11.94
2017-09-13T02:34:40.599Z,11.94
2017-09-13T02:35:29.205Z,11.93
2017-09-13T02:36:17.203Z,11.93
2017-09-13T02:37:06.337Z,11.90
2017-09-13T02:37:54.371Z,11.97
2017-09-13T02:38:43.377Z,11.98
2017-09-13T02:39:43.723Z,11.98
2017-09-13T02:40:32.595Z,11.97
2017-09-13T02:41:32.447Z,12.00
2017-09-13T02:42:26.841Z,12.01
2017-09-13T02:43:21.525Z,12.04
2017-09-13T02:44:22.567Z,12.02
2017-09-13T02:45:16.800Z,12.04
2017-09-13T02:46:05.628Z,12.05
2017-09-13T02:47:05.691Z,12.03
2017-09-13T02:47:59.766Z,12.04
2017-09-13T02:48:59.776Z,12.06
2017-09-13T02:49:48.875Z,12.07
2017-09-13T02:50:42.914Z,12.08
2017-09-13T02:51:37.909Z,12.08
2017-09-13T02:52:27.135Z,12.06
2017-09-13T02:53:14.931Z,12.08
2017-09-13T02:54:15.010Z,12.06
2017-09-13T02:55:09.996Z,12.06
2017-09-13T02:56:10.146Z,12.04
2017-09-13T02:56:59.233Z,12.04
2017-09-13T02:57:53.049Z,12.04
2017-09-13T02:58:59.120Z,12.02
2017-09-13T02:59:54.158Z,12.03
2017-09-13T03:00:54.192Z,12.00
2017-09-13T03:01:49.360Z,12.04
2017-09-13T03:02:49.524Z,12.00
2017-09-13T03:03:43.598Z,11.99
2017-09-13T03:04:31.405Z,12.00
2017-09-13T03:05:31.383Z,12.04
2017-09-13T03:06:31.379Z,12.05
2017-09-13T03:07:20.756Z,12.04
2017-09-13T03:08:15.501Z,12.06
2017-09-13T03:09:10.538Z,12.06
2017-09-13T03:10:10.562Z,12.06
2017-09-13T03:11:04.570Z,12.05
2017-09-13T03:11:59.794Z,12.03
2017-09-13T03:12:53.655Z,12.06
2017-09-13T03:13:47.728Z,12.06
2017-09-13T03:14:42.774Z,12.08
2017-09-13T03:15:37.729Z,12.09
2017-09-13T03:16:26.770Z,12.08
2017-09-13T03:17:27.184Z,12.05
2017-09-13T03:18:20.956Z,12.14
2017-09-13T03:19:20.896Z,12.12
2017-09-13T03:20:15.087Z,12.13
2017-09-13T03:21:08.931Z,12.14
2017-09-13T03:22:03.088Z,12.11
2017-09-13T03:23:03.044Z,12.14
2017-09-13T03:24:03.081Z,12.13
2017-09-13T03:24:58.038Z,12.16
2017-09-13T03:25:52.128Z,12.16
2017-09-13T03:26:47.163Z,12.18
2017-09-13T03:27:42.505Z,12.16
2017-09-13T03:28:42.245Z,12.18
2017-09-13T03:29:42.463Z,12.20
2017-09-13T03:30:37.328Z,12.19
2017-09-13T03:31:32.323Z,12.20
2017-09-13T03:32:32.586Z,12.18
2017-09-13T03:33:26.370Z,12.22
2017-09-13T03:34:32.466Z,12.22
2017-09-13T03:35:21.509Z,12.25
2017-09-13T03:36:21.565Z,12.27
2017-09-13T03:37:15.511Z,12.26
2017-09-13T03:38:21.540Z,12.28
2017-09-13T03:39:21.583Z,12.28
2017-09-13T03:40:16.564Z,12.27
2017-09-13T03:41:10.653Z,12.30
2017-09-13T03:42:04.644Z,12.27
2017-09-13T03:42:59.710Z,12.30
2017-09-13T03:43:53.775Z,12.31
2017-09-13T03:44:48.750Z,12.30
2017-09-13T03:45:48.855Z,12.32
2017-09-13T03:46:42.863Z,12.32
2017-09-13T03:47:32.105Z,12.30
2017-09-13T03:48:20.951Z,12.34
2017-09-13T03:49:10.016Z,12.36
2017-09-13T03:50:11.081Z,12.40
2017-09-13T03:51:12.010Z,12.40
2017-09-13T03:52:06.279Z,12.36
2017-09-13T03:52:55.109Z,12.37
2017-09-13T03:53:50.137Z,12.38
2017-09-13T03:54:50.282Z,12.38
2017-09-13T03:55:50.200Z,12.38
2017-09-13T03:56:44.215Z,12.37
2017-09-13T03:57:44.541Z,12.37
2017-09-13T03:58:38.290Z,12.42
2017-09-13T03:59:32.412Z,12.40
2017-09-13T04:00:26.394Z,12.40
2017-09-13T04:01:21.487Z,12.40
2017-09-13T04:02:09.680Z,12.37
2017-09-13T04:03:03.507Z,12.38
2017-09-13T04:04:03.496Z,12.40
2017-09-13T04:04:58.526Z,12.41
2017-09-13T04:05:58.572Z,12.39
2017-09-13T04:06:52.645Z,12.40
2017-09-13T04:07:46.939Z,12.40
2017-09-13T04:08:40.796Z,12.44
2017-09-13T04:09:40.735Z,12.41
2017-09-13T04:10:34.835Z,12.42
2017-09-13T04:11:34.815Z,12.41
2017-09-13T04:12:29.183Z,12.40
2017-09-13T04:13:34.794Z,12.42
2017-09-13T04:14:24.027Z,12.40
2017-09-13T04:15:12.962Z,12.41
2017-09-13T04:16:19.027Z,12.40
2017-09-13T04:17:14.332Z,12.38
2017-09-13T04:18:14.076Z,12.40
2017-09-13T04:19:08.149Z,12.40
2017-09-13T04:20:08.161Z,12.42
2017-09-13T04:21:03.189Z,12.40
2017-09-13T04:21:57.201Z,12.41
2017-09-13T04:22:51.490Z,12.41
2017-09-13T04:23:46.233Z,12.39
2017-09-13T04:24:46.199Z,12.43
2017-09-13T04:25:41.638Z,12.42
2017-09-13T04:26:41.383Z,12.41
2017-09-13T04:27:35.377Z,12.42
2017-09-13T04:28:35.402Z,12.44
2017-09-13T04:29:29.422Z,12.41
2017-09-13T04:30:30.454Z,12.43
2017-09-13T04:31:25.621Z,12.43
2017-09-13T04:32:19.569Z,12.40
2017-09-13T04:33:13.538Z,12.43
2017-09-13T04:34:07.588Z,12.42
2017-09-13T04:35:07.603Z,12.44
2017-09-13T04:36:07.638Z,12.41
2017-09-13T04:37:02.035Z,12.43
2017-09-13T04:37:57.040Z,12.43
2017-09-13T04:38:56.824Z,12.40
2017-09-13T04:39:51.838Z,12.41
2017-09-13T04:40:45.938Z,12.45
2017-09-13T04:41:39.887Z,12.45
2017-09-13T04:42:41.019Z,12.43
2017-09-13T04:43:41.895Z,12.44
2017-09-13T04:44:31.157Z,12.44
2017-09-13T04:45:19.066Z,12.44
2017-09-13T04:46:19.048Z,12.42
2017-09-13T04:47:14.225Z,12.44
2017-09-13T04:48:09.165Z,12.46
2017-09-13T04:49:09.251Z,12.47
2017-09-13T04:50:04.165Z,12.46
2017-09-13T04:50:59.284Z,12.49
2017-09-13T04:51:54.215Z,12.50
2017-09-13T04:52:55.418Z,12.51
2017-09-13T04:53:49.640Z,12.50
2017-09-13T04:54:44.307Z,12.52
2017-09-13T04:55:38.772Z,12.50
2017-09-13T04:56:32.493Z,12.52
2017-09-13T04:57:32.502Z,12.52
2017-09-13T04:58:26.495Z,12.54
2017-09-13T04:59:20.473Z,12.54
2017-09-13T05:00:14.585Z,12.53
2017-09-13T05:01:09.674Z,12.54
2017-09-13T05:02:03.898Z,12.54
2017-09-13T05:02:52.697Z,12.56
2017-09-13T05:03:47.668Z,12.60
2017-09-13T05:04:41.834Z,12.60
2017-09-13T05:05:36.842Z,12.59
2017-09-13T05:06:37.781Z,12.60
2017-09-13T05:07:38.090Z,12.61
2017-09-13T05:08:31.920Z,12.62
2017-09-13T05:09:32.103Z,12.63
2017-09-13T05:10:21.197Z,12.63
2017-09-13T05:11:21.219Z,12.64
2017-09-13T05:12:15.091Z,12.64
2017-09-13T05:13:15.009Z,12.62
2017-09-13T05:14:15.082Z,12.64
2017-09-13T05:15:15.101Z,12.62
2017-09-13T05:16:09.178Z,12.62
2017-09-13T05:17:09.088Z,12.64
2017-09-13T05:18:04.213Z,12.64
2017-09-13T05:18:59.289Z,12.65
2017-09-13T05:19:53.324Z,12.67
2017-09-13T05:20:48.374Z,12.66
2017-09-13T05:21:48.425Z,12.67
2017-09-13T05:22:42.425Z,12.66
2017-09-13T05:23:37.756Z,12.64
2017-09-13T05:24:26.440Z,12.62
2017-09-13T05:25:15.527Z,12.63
2017-09-13T05:26:04.582Z,12.64
2017-09-13T05:26:58.609Z,12.67
2017-09-13T05:27:58.610Z,12.70
2017-09-13T05:28:52.689Z,12.67
2017-09-13T05:29:52.639Z,12.68
2017-09-13T05:30:47.712Z,12.70
2017-09-13T05:31:42.818Z,12.67
2017-09-13T05:32:37.836Z,12.66
2017-09-13T05:33:38.910Z,12.69
2017-09-13T05:34:32.870Z,12.68
2017-09-13T05:35:26.934Z,12.70
2017-09-13T05:36:21.910Z,12.71
2017-09-13T05:37:16.058Z,12.68
2017-09-13T05:38:10.048Z,12.69
2017-09-13T05:39:04.052Z,12.70
2017-09-13T05:39:59.413Z,12.72
2017-09-13T05:40:53.121Z,12.72
2017-09-13T05:41:48.167Z,12.75
2017-09-13T05:42:37.160Z,12.71
2017-09-13T05:43:31.191Z,12.74
2017-09-13T05:44:25.315Z,12.77
2017-09-13T05:45:20.348Z,12.73
2017-09-13T05:46:09.607Z,12.72
2017-09-13T05:47:04.720Z,12.72
2017-09-13T05:47:58.537Z,12.74
2017-09-13T05:48:53.477Z,12.73
2017-09-13T05:49:41.511Z,12.74
2017-09-13T05:50:35.615Z,12.77
2017-09-13T05:51:30.615Z,12.76
2017-09-13T05:52:19.641Z,12.81
2017-09-13T05:53:14.701Z,12.79
2017-09-13T05:54:04.014Z,12.82
2017-09-13T05:54:51.849Z,12.84
2017-09-13T05:55:52.817Z,12.85
2017-09-13T05:56:47.768Z,12.86
2017-09-13T05:57:41.875Z,12.79
2017-09-13T05:58:42.033Z,12.82
2017-09-13T05:59:37.512Z,12.87
2017-09-13T06:00:30.934Z,12.85
2017-09-13T06:01:25.055Z,12.83
2017-09-13T06:02:20.082Z,12.84
2017-09-13T06:03:15.121Z,12.86
2017-09-13T06:04:09.142Z,12.84
2017-09-13T06:05:03.136Z,12.91
2017-09-13T06:05:57.143Z,12.88
2017-09-13T06:06:52.230Z,12.88
2017-09-13T06:07:47.250Z,12.86
2017-09-13T06:08:47.289Z,12.94
2017-09-13T06:09:41.308Z,12.94
2017-09-13T06:10:30.409Z,12.96
2017-09-13T06:11:30.513Z,12.99
2017-09-13T06:12:25.459Z,13.02
2017-09-13T06:13:19.494Z,13.02
2017-09-13T06:14:14.613Z,13.03
2017-09-13T06:15:14.561Z,13.02
2017-09-13T06:16:09.582Z,13.08
2017-09-13T06:17:04.860Z,13.12
2017-09-13T06:18:05.678Z,13.12
2017-09-13T06:18:59.783Z,13.14
2017-09-13T06:19:53.738Z,13.13
2017-09-13T06:20:53.725Z,13.14
2017-09-13T06:21:48.816Z,13.12
2017-09-13T06:22:42.825Z,13.25
2017-09-13T06:23:37.199Z,13.21
2017-09-13T06:24:31.975Z,13.22
2017-09-13T06:25:26.127Z,13.20
2017-09-13T06:26:21.070Z,13.22
2017-09-13T06:27:15.003Z,13.28
2017-09-13T06:28:09.097Z,13.24
2017-09-13T06:29:04.113Z,13.23
2017-09-13T06:29:58.116Z,13.21
2017-09-13T06:30:58.209Z,13.20
2017-09-13T06:31:52.164Z,13.19
2017-09-13T06:32:52.297Z,13.19
2017-09-13T06:33:47.233Z,13.22
2017-09-13T06:34:41.305Z,13.20
2017-09-13T06:35:41.386Z,13.24
2017-09-13T06:36:36.347Z,13.24
2017-09-13T06:37:31.377Z,13.22
2017-09-13T06:38:25.475Z,13.24
2017-09-13T06:39:19.463Z,13.22
2017-09-13T06:40:13.472Z,13.20
2017-09-13T06:41:14.633Z,13.26
2017-09-13T06:42:09.852Z,13.20
2017-09-13T06:43:03.694Z,13.28
2017-09-13T06:44:01.001Z,13.19
2017-09-13T06:44:58.767Z,13.26
2017-09-13T06:45:52.693Z,13.27
2017-09-13T06:46:52.728Z,13.30
2017-09-13T06:47:47.069Z,13.25
2017-09-13T06:48:46.884Z,13.30
2017-09-13T06:49:41.958Z,13.37
2017-09-13T06:50:35.928Z,13.32
2017-09-13T06:51:30.945Z,13.36
2017-09-13T06:52:31.084Z,13.40
2017-09-13T06:53:26.011Z,13.50
2017-09-13T06:54:26.038Z,13.54
2017-09-13T06:55:14.062Z,13.60
2017-09-13T06:56:08.438Z,13.68
2017-09-13T06:57:03.191Z,13.84
2017-09-13T06:57:58.279Z,14.11
2017-09-13T06:58:47.228Z,14.32
2017-09-13T06:59:41.307Z,14.38
2017-09-13T07:00:36.457Z,14.34
2017-09-13T07:01:30.438Z,14.30
2017-09-13T07:02:25.410Z,14.28
2017-09-13T07:03:19.470Z,14.29
2017-09-13T07:04:19.457Z,14.48
2017-09-13T07:05:13.619Z,14.69
2017-09-13T07:06:08.654Z,14.73
2017-09-13T07:07:03.653Z,14.81
2017-09-13T07:07:58.662Z,14.89
2017-09-13T07:08:46.727Z,14.96
2017-09-13T07:09:46.714Z,15.04
2017-09-13T07:10:41.858Z,15.09
2017-09-13T07:11:41.914Z,15.27
2017-09-13T07:12:29.815Z,15.40
2017-09-13T07:13:25.026Z,15.42
2017-09-13T07:14:18.964Z,15.61
2017-09-13T07:15:13.090Z,15.93
2017-09-13T07:16:08.028Z,16.26
2017-09-13T07:17:08.403Z,16.29
2017-09-13T07:17:57.181Z,16.39
2017-09-13T07:18:51.117Z,16.40
2017-09-13T07:19:51.337Z,16.16
2017-09-13T07:20:46.306Z,15.90
2017-09-13T07:21:46.198Z,16.10
2017-09-13T07:22:40.634Z,16.36
2017-09-13T07:23:34.726Z,16.69
2017-09-13T07:24:22.436Z,16.87
2017-09-13T07:25:11.487Z,17.14
2017-09-13T07:26:05.502Z,17.54
2017-09-13T07:26:59.602Z,17.68
2017-09-13T07:27:54.922Z,17.70
2017-09-13T07:28:48.922Z,17.22
2017-09-13T07:29:48.721Z,16.70
2017-09-13T07:30:48.702Z,16.76
2017-09-13T07:31:48.770Z,16.50
2017-09-13T07:32:42.946Z,16.49
2017-09-13T07:33:43.440Z,16.35
2017-09-13T07:34:36.948Z,16.26
2017-09-13T07:35:32.118Z,16.14
2017-09-13T07:36:21.079Z,16.05
2017-09-13T07:37:15.254Z,15.93
2017-09-13T07:38:04.131Z,15.90
2017-09-13T07:39:04.433Z,15.84
2017-09-13T07:39:58.219Z,15.69
2017-09-13T07:40:58.181Z,15.60
2017-09-13T07:41:53.298Z,15.57
2017-09-13T07:42:47.311Z,15.52
2017-09-13T07:43:47.346Z,15.46
2017-09-13T07:44:42.440Z,15.34
2017-09-13T07:45:37.509Z,15.37
2017-09-13T07:46:31.685Z,15.40
2017-09-13T07:47:31.577Z,15.44
2017-09-13T07:48:25.592Z,15.52
2017-09-13T07:49:25.670Z,15.52
2017-09-13T07:50:20.619Z,15.56
2017-09-13T07:51:14.756Z,15.57
2017-09-13T07:52:09.120Z,15.43
2017-09-13T07:53:03.772Z,15.36
2017-09-13T07:53:57.800Z,15.18
2017-09-13T07:54:53.100Z,15.22
2017-09-13T07:55:46.898Z,15.13
2017-09-13T07:56:40.943Z,15.10
2017-09-13T07:57:36.140Z,15.01
2017-09-13T07:58:36.028Z,15.02
2017-09-13T07:59:30.091Z,15.04
2017-09-13T08:00:30.140Z,15.02
2017-09-13T08:01:19.431Z,15.04
2017-09-13T08:02:14.226Z,14.98
2017-09-13T08:03:08.300Z,14.97
2017-09-13T08:04:08.257Z,15.00
2017-09-13T08:04:57.349Z,15.04
2017-09-13T08:05:52.365Z,14.97
2017-09-13T08:06:41.778Z,14.92
2017-09-13T08:07:41.465Z,14.90
2017-09-13T08:08:36.526Z,15.02
2017-09-13T08:09:31.579Z,15.06
2017-09-13T08:10:25.616Z,15.07
2017-09-13T08:11:19.668Z,15.12
2017-09-13T08:12:15.120Z,15.20
2017-09-13T08:13:08.699Z,15.21
2017-09-13T08:14:08.823Z,15.32
2017-09-13T08:15:08.845Z,15.27
2017-09-13T08:16:03.838Z,15.32
2017-09-13T08:16:57.861Z,15.25
2017-09-13T08:17:52.252Z,15.07
2017-09-13T08:18:46.987Z,15.05
2017-09-13T08:19:41.114Z,15.01
2017-09-13T08:20:41.116Z,15.03
2017-09-13T08:21:35.028Z,14.88
2017-09-13T08:22:35.119Z,14.96
2017-09-13T08:23:30.200Z,15.08
2017-09-13T08:24:24.222Z,15.32
2017-09-13T08:25:18.226Z,15.36
2017-09-13T08:26:18.277Z,15.30
2017-09-13T08:27:18.339Z,15.14
2017-09-13T08:28:12.402Z,14.88
2017-09-13T08:29:06.460Z,14.52
2017-09-13T08:30:00.639Z,14.50
2017-09-13T08:30:54.554Z,14.59
2017-09-13T08:31:43.615Z,14.66
2017-09-13T08:32:44.591Z,14.60
2017-09-13T08:33:38.673Z,14.60
2017-09-13T08:34:32.643Z,14.45
2017-09-13T08:35:32.920Z,14.52
2017-09-13T08:36:26.741Z,14.63
2017-09-13T08:37:26.776Z,14.46
2017-09-13T08:38:21.868Z,14.38
2017-09-13T08:39:16.836Z,14.43
2017-09-13T08:40:11.457Z,14.44
2017-09-13T08:41:05.230Z,13.86
2017-09-13T08:42:05.029Z,13.71
2017-09-13T08:43:05.148Z,13.72
2017-09-13T08:44:05.184Z,13.69
2017-09-13T08:44:54.285Z,13.86
2017-09-13T08:45:49.706Z,13.81
2017-09-13T08:46:38.411Z,13.71
2017-09-13T08:47:32.470Z,13.55
2017-09-13T08:48:26.478Z,13.40
2017-09-13T08:49:20.583Z,13.17
2017-09-13T08:50:20.634Z,13.12
2017-09-13T08:51:14.834Z,13.06
2017-09-13T08:52:14.703Z,13.06
2017-09-13T08:53:02.639Z,12.88
2017-09-13T08:54:03.733Z,12.81
2017-09-13T08:55:04.809Z,12.65
2017-09-13T08:55:58.806Z,12.33
2017-09-13T08:56:53.252Z,12.23
2017-09-13T08:57:52.933Z,12.30
2017-09-13T08:58:41.821Z,12.28
2017-09-13T08:59:35.840Z,12.11
2017-09-13T09:00:29.790Z,12.11
2017-09-13T09:01:23.968Z,12.18
2017-09-13T09:02:19.267Z,12.12
2017-09-13T09:03:13.213Z,12.13
2017-09-13T09:04:07.189Z,12.12
2017-09-13T09:05:07.076Z,12.18
2017-09-13T09:06:01.217Z,12.12
2017-09-13T09:07:02.113Z,12.19
2017-09-13T09:07:57.605Z,12.28
2017-09-13T09:08:51.273Z,12.22
2017-09-13T09:09:45.237Z,12.10
2017-09-13T09:10:45.351Z,12.25
2017-09-13T09:11:45.324Z,12.50
2017-09-13T09:12:40.361Z,12.36
2017-09-13T09:13:29.862Z,12.46
2017-09-13T09:14:24.498Z,12.67
2017-09-13T09:15:18.553Z,12.67
2017-09-13T09:16:19.561Z,12.60
2017-09-13T09:17:13.858Z,12.53
2017-09-13T09:18:07.643Z,12.23
2017-09-13T09:19:02.078Z,12.20
2017-09-13T09:19:55.711Z,12.48
2017-09-13T09:20:50.805Z,12.64
2017-09-13T09:21:39.855Z,12.44
2017-09-13T09:22:27.858Z,12.45
2017-09-13T09:23:21.931Z,12.62
2017-09-13T09:24:10.250Z,12.82
2017-09-13T09:25:03.994Z,12.88
2017-09-13T09:25:58.074Z,13.07
2017-09-13T09:26:47.115Z,13.17
2017-09-13T09:27:36.115Z,13.37
2017-09-13T09:28:30.162Z,13.39
2017-09-13T09:29:30.536Z,13.39
2017-09-13T09:30:25.294Z,13.44
2017-09-13T09:31:19.398Z,13.48
2017-09-13T09:32:13.787Z,13.54
2017-09-13T09:33:01.465Z,13.49
2017-09-13T09:33:55.470Z,13.58
2017-09-13T09:34:49.759Z,13.57
2017-09-13T09:35:38.497Z,13.64
2017-09-13T09:36:32.504Z,13.66
2017-09-13T09:37:21.625Z,13.73
2017-09-13T09:38:15.729Z,13.84
2017-09-13T09:39:10.663Z,14.40
2017-09-13T09:40:05.101Z,14.69
2017-09-13T09:40:58.776Z,14.71
2017-09-13T09:41:58.836Z,14.70
2017-09-13T09:42:52.809Z,14.80
2017-09-13T09:43:46.882Z,15.40
2017-09-13T09:44:41.961Z,15.66
2017-09-13T09:45:30.330Z,16.00
2017-09-13T09:46:25.007Z,16.74
2017-09-13T09:47:20.049Z,16.53
2017-09-13T09:48:15.481Z,16.24
2017-09-13T09:49:16.365Z,15.91
2017-09-13T09:50:05.109Z,15.82
2017-09-13T09:50:59.555Z,15.53
2017-09-13T09:51:53.271Z,14.88
2017-09-13T09:52:42.343Z,14.64
2017-09-13T09:53:31.383Z,14.38
2017-09-13T09:54:19.443Z,14.31
2017-09-13T09:55:14.450Z,14.16
2017-09-13T09:56:03.757Z,14.10
2017-09-13T09:56:58.680Z,13.94
2017-09-13T09:57:52.590Z,13.88
2017-09-13T09:58:41.615Z,13.94
2017-09-13T09:59:36.671Z,13.88
2017-09-13T10:00:36.923Z,13.87
2017-09-13T10:01:31.081Z,13.92
2017-09-13T10:02:24.871Z,13.76
2017-09-13T10:03:13.848Z,13.66
2017-09-13T10:04:07.997Z,14.01
2017-09-13T10:05:03.084Z,14.60
2017-09-13T10:05:51.149Z,15.08
2017-09-13T10:06:40.464Z,15.40
2017-09-13T10:07:35.210Z,15.26
2017-09-13T10:08:29.190Z,14.96
2017-09-13T10:09:24.320Z,14.67
2017-09-13T10:10:24.182Z,14.45
2017-09-13T10:11:18.199Z,14.23
2017-09-13T10:12:13.579Z,14.56
2017-09-13T10:13:08.459Z,14.98
2017-09-13T10:14:09.530Z,15.46
2017-09-13T10:14:58.573Z,15.71
2017-09-13T10:15:52.602Z,15.54
2017-09-13T10:16:52.745Z,15.80
2017-09-13T10:17:40.768Z,16.10
2017-09-13T10:18:34.619Z,15.72
2017-09-13T10:19:34.593Z,16.02
2017-09-13T10:20:34.921Z,15.30
2017-09-13T10:21:28.705Z,15.44
2017-09-13T10:22:22.750Z,15.52
2017-09-13T10:23:18.008Z,15.46
2017-09-13T10:24:11.947Z,15.67
2017-09-13T10:25:05.888Z,15.74
2017-09-13T10:25:59.933Z,14.79
2017-09-13T10:26:54.989Z,14.71
2017-09-13T10:27:55.214Z,14.82
2017-09-13T10:28:50.305Z,14.48
2017-09-13T10:29:44.297Z,13.64
2017-09-13T10:30:39.178Z,13.72
2017-09-13T10:31:27.507Z,13.99
2017-09-13T10:32:21.494Z,14.13
2017-09-13T10:33:21.326Z,14.52
2017-09-13T10:34:15.667Z,15.26
2017-09-13T10:35:09.675Z,15.99
2017-09-13T10:35:58.726Z,17.80
2017-09-13T10:36:53.668Z,18.08
2017-09-13T10:37:47.836Z,17.22
2017-09-13T10:38:41.823Z,16.11
2017-09-13T10:39:35.909Z,16.32
2017-09-13T10:40:29.863Z,15.57
2017-09-13T10:41:23.994Z,15.56
2017-09-13T10:42:18.911Z,16.48
2017-09-13T10:43:08.113Z,16.64
2017-09-13T10:44:08.104Z,17.62
2017-09-13T10:44:56.244Z,19.06
2017-09-13T10:45:50.239Z,18.74
2017-09-13T10:46:50.366Z,19.54
2017-09-13T10:47:39.437Z,19.74
2017-09-13T10:48:33.372Z,20.17
2017-09-13T10:49:22.502Z,20.76
2017-09-13T10:50:16.563Z,20.84
2017-09-13T10:51:10.590Z,21.00
2017-09-13T10:52:05.594Z,21.24
2017-09-13T10:52:54.714Z,21.09
2017-09-13T10:53:43.728Z,21.06
2017-09-13T10:54:37.819Z,20.81
2017-09-13T10:55:37.881Z,20.55
2017-09-13T10:56:31.860Z,20.87
2017-09-13T10:57:26.849Z,20.58
2017-09-13T10:58:27.032Z,20.00
2017-09-13T10:59:16.121Z,19.46
2017-09-13T11:00:16.119Z,19.81
2017-09-13T11:01:10.225Z,19.94
2017-09-13T11:02:04.156Z,19.71
2017-09-13T11:02:53.314Z,19.41
2017-09-13T11:03:47.338Z,18.98
2017-09-13T11:04:47.437Z,19.03
2017-09-13T11:05:41.440Z,19.45
2017-09-13T11:06:35.863Z,19.68
2017-09-13T11:07:24.592Z,19.54
2017-09-13T11:08:19.583Z,19.62
2017-09-13T11:09:07.714Z,19.90
2017-09-13T11:10:01.681Z,20.23
2017-09-13T11:11:01.761Z,20.50
2017-09-13T11:11:57.096Z,20.54
2017-09-13T11:12:50.946Z,20.43
2017-09-13T11:13:44.918Z,20.78
2017-09-13T11:14:40.000Z,20.78
2017-09-13T11:15:40.060Z,20.39
2017-09-13T11:16:34.098Z,20.36
2017-09-13T11:17:28.194Z,20.37
2017-09-13T11:18:16.252Z,20.81
2017-09-13T11:19:10.361Z,20.78
2017-09-13T11:19:59.251Z,20.78
2017-09-13T11:20:53.410Z,20.54
2017-09-13T11:21:53.457Z,20.42
2017-09-13T11:22:41.561Z,20.28
2017-09-13T11:23:30.644Z,19.65
2017-09-13T11:24:19.583Z,19.56
2017-09-13T11:25:14.678Z,19.68
2017-09-13T11:26:09.730Z,19.52
2017-09-13T11:26:58.713Z,19.49
2017-09-13T11:27:58.832Z,19.64
2017-09-13T11:28:47.887Z,19.98
2017-09-13T11:29:36.968Z,19.74
2017-09-13T11:30:30.996Z,18.87
2017-09-13T11:31:25.997Z,18.44
2017-09-13T11:32:20.086Z,18.62
2017-09-13T11:33:09.140Z,18.65
2017-09-13T11:34:10.138Z,19.09
2017-09-13T11:35:04.267Z,19.39
2017-09-13T11:35:58.252Z,19.02
2017-09-13T11:36:59.335Z,19.02
2017-09-13T11:37:54.418Z,19.08
2017-09-13T11:38:54.490Z,19.32
2017-09-13T11:39:48.451Z,19.80
2017-09-13T11:40:43.506Z,19.62
2017-09-13T11:41:38.641Z,19.73
2017-09-13T11:42:33.570Z,19.82
2017-09-13T11:43:28.700Z,19.96
2017-09-13T11:44:17.764Z,20.11
2017-09-13T11:45:12.755Z,20.30
2017-09-13T11:46:07.880Z,20.08
2017-09-13T11:47:02.852Z,20.42
2017-09-13T11:48:02.968Z,20.40